sensor_id;sensor_type;location;lat;lon;timestamp;P1;durP1;ratioP1;P2;durP2;ratioP2
66400;SDS011;53211;45.040;38.788;2022-12-29T00:02:21;709.40;;;138.95;;
66400;SDS011;53211;45.040;38.788;2022-12-29T00:04:48;713.10;;;139.65;;
66400;SDS011;53211;45.040;38.788;2022-12-29T00:07:15;707.63;;;138.10;;
66400;SDS011;53211;45.040;38.788;2022-12-29T00:09:44;712.88;;;139.85;;
66400;SDS011;53211;45.040;38.788;2022-12-29T00:12:10;709.53;;;140.57;;
66400;SDS011;53211;45.040;38.788;2022-12-29T00:14:36;710.80;;;140.30;;
66400;SDS011;53211;45.040;38.788;2022-12-29T00:17:20;711.60;;;141.00;;
66400;SDS011;53211;45.040;38.788;2022-12-29T00:19:46;706.92;;;138.48;;
66400;SDS011;53211;45.040;38.788;2022-12-29T00:22:30;714.45;;;143.75;;
66400;SDS011;53211;45.040;38.788;2022-12-29T00:25:15;712.85;;;139.32;;
66400;SDS011;53211;45.040;38.788;2022-12-29T00:27:59;714.60;;;140.30;;
66400;SDS011;53211;45.040;38.788;2022-12-29T00:30:44;716.90;;;139.90;;
66400;SDS011;53211;45.040;38.788;2022-12-29T00:33:29;715.35;;;138.70;;
66400;SDS011;53211;45.040;38.788;2022-12-29T00:36:27;712.47;;;139.23;;
66400;SDS011;53211;45.040;38.788;2022-12-29T00:39:01;712.45;;;139.15;;
66400;SDS011;53211;45.040;38.788;2022-12-29T00:41:55;713.10;;;139.20;;
66400;SDS011;53211;45.040;38.788;2022-12-29T00:44:40;717.50;;;139.90;;
66400;SDS011;53211;45.040;38.788;2022-12-29T00:47:08;713.50;;;137.80;;
66400;SDS011;53211;45.040;38.788;2022-12-29T00:49:34;714.40;;;138.80;;
66400;SDS011;53211;45.040;38.788;2022-12-29T00:54:28;707.97;;;139.57;;
66400;SDS011;53211;45.040;38.788;2022-12-29T00:56:56;707.90;;;139.70;;
66400;SDS011;53211;45.040;38.788;2022-12-29T00:59:22;707.05;;;139.90;;
66400;SDS011;53211;45.040;38.788;2022-12-29T01:01:49;707.75;;;139.55;;
66400;SDS011;53211;45.040;38.788;2022-12-29T01:04:16;708.00;;;139.35;;
66400;SDS011;53211;45.040;38.788;2022-12-29T01:06:43;707.53;;;138.67;;
66400;SDS011;53211;45.040;38.788;2022-12-29T01:09:09;707.30;;;138.10;;
66400;SDS011;53211;45.040;38.788;2022-12-29T01:11:54;708.77;;;138.77;;
66400;SDS011;53211;45.040;38.788;2022-12-29T01:14:21;707.95;;;139.05;;
66400;SDS011;53211;45.040;38.788;2022-12-29T01:16:48;703.95;;;140.15;;
66400;SDS011;53211;45.040;38.788;2022-12-29T01:19:16;706.60;;;139.20;;
66400;SDS011;53211;45.040;38.788;2022-12-29T01:21:42;706.25;;;140.80;;
66400;SDS011;53211;45.040;38.788;2022-12-29T01:24:08;707.87;;;140.57;;
66400;SDS011;53211;45.040;38.788;2022-12-29T01:26:34;702.70;;;139.35;;
66400;SDS011;53211;45.040;38.788;2022-12-29T01:29:00;702.20;;;139.85;;
66400;SDS011;53211;45.040;38.788;2022-12-29T01:31:28;705.50;;;140.50;;
66400;SDS011;53211;45.040;38.788;2022-12-29T01:33:54;709.17;;;139.00;;
66400;SDS011;53211;45.040;38.788;2022-12-29T01:36:20;708.33;;;139.43;;
66400;SDS011;53211;45.040;38.788;2022-12-29T01:38:47;702.80;;;139.10;;
66400;SDS011;53211;45.040;38.788;2022-12-29T01:41:17;699.90;;;140.80;;
66400;SDS011;53211;45.040;38.788;2022-12-29T01:43:48;700.00;;;140.50;;
66400;SDS011;53211;45.040;38.788;2022-12-29T01:46:30;703.33;;;138.80;;
66400;SDS011;53211;45.040;38.788;2022-12-29T01:51:41;702.05;;;141.90;;
66400;SDS011;53211;45.040;38.788;2022-12-29T01:54:28;691.50;;;144.50;;
66400;SDS011;53211;45.040;38.788;2022-12-29T01:57:01;706.60;;;138.25;;
66400;SDS011;53211;45.040;38.788;2022-12-29T01:59:34;720.60;;;138.50;;
66400;SDS011;53211;45.040;38.788;2022-12-29T02:02:06;714.20;;;139.33;;
66400;SDS011;53211;45.040;38.788;2022-12-29T02:04:33;697.55;;;142.52;;
66400;SDS011;53211;45.040;38.788;2022-12-29T02:07:04;702.73;;;139.53;;
66400;SDS011;53211;45.040;38.788;2022-12-29T02:09:35;703.85;;;138.65;;
66400;SDS011;53211;45.040;38.788;2022-12-29T02:12:01;690.50;;;141.43;;
66400;SDS011;53211;45.040;38.788;2022-12-29T02:14:28;678.63;;;143.77;;
66400;SDS011;53211;45.040;38.788;2022-12-29T02:20:32;706.10;;;137.60;;
66400;SDS011;53211;45.040;38.788;2022-12-29T02:36:43;718.88;;;135.20;;
66400;SDS011;53211;45.040;38.788;2022-12-29T02:39:36;717.70;;;135.20;;
66400;SDS011;53211;45.040;38.788;2022-12-29T02:42:14;717.03;;;135.63;;
66400;SDS011;53211;45.040;38.788;2022-12-29T02:45:15;716.70;;;135.45;;
66400;SDS011;53211;45.040;38.788;2022-12-29T02:48:07;712.40;;;135.30;;
66400;SDS011;53211;45.040;38.788;2022-12-29T02:50:39;701.07;;;134.93;;
66400;SDS011;53211;45.040;38.788;2022-12-29T02:53:11;708.65;;;136.55;;
66400;SDS011;53211;45.040;38.788;2022-12-29T02:55:47;707.53;;;142.07;;
66400;SDS011;53211;45.040;38.788;2022-12-29T02:58:19;704.20;;;135.55;;
66400;SDS011;53211;45.040;38.788;2022-12-29T03:09:30;703.80;;;135.93;;
66400;SDS011;53211;45.040;38.788;2022-12-29T03:12:24;703.60;;;135.65;;
66400;SDS011;53211;45.040;38.788;2022-12-29T03:15:20;702.00;;;136.40;;
66400;SDS011;53211;45.040;38.788;2022-12-29T03:18:15;703.65;;;135.90;;
66400;SDS011;53211;45.040;38.788;2022-12-29T03:20:54;696.90;;;134.67;;
66400;SDS011;53211;45.040;38.788;2022-12-29T03:23:23;700.60;;;136.80;;
66400;SDS011;53211;45.040;38.788;2022-12-29T03:25:54;701.75;;;138.15;;
66400;SDS011;53211;45.040;38.788;2022-12-29T03:28:23;700.20;;;135.40;;
66400;SDS011;53211;45.040;38.788;2022-12-29T03:30:53;728.10;;;135.00;;
66400;SDS011;53211;45.040;38.788;2022-12-29T03:33:22;726.87;;;134.43;;
66400;SDS011;53211;45.040;38.788;2022-12-29T03:35:52;729.15;;;134.40;;
66400;SDS011;53211;45.040;38.788;2022-12-29T03:38:37;726.50;;;134.10;;
66400;SDS011;53211;45.040;38.788;2022-12-29T03:41:11;724.17;;;134.73;;
66400;SDS011;53211;45.040;38.788;2022-12-29T03:43:42;724.90;;;134.43;;
66400;SDS011;53211;45.040;38.788;2022-12-29T03:46:08;736.03;;;134.93;;
66400;SDS011;53211;45.040;38.788;2022-12-29T03:48:35;726.70;;;135.40;;
66400;SDS011;53211;45.040;38.788;2022-12-29T03:51:02;730.10;;;136.05;;
66400;SDS011;53211;45.040;38.788;2022-12-29T03:53:28;725.65;;;135.50;;
66400;SDS011;53211;45.040;38.788;2022-12-29T03:55:54;724.05;;;134.50;;
66400;SDS011;53211;45.040;38.788;2022-12-29T03:58:22;730.75;;;145.25;;
66400;SDS011;53211;45.040;38.788;2022-12-29T04:00:58;724.00;;;134.80;;
66400;SDS011;53211;45.040;38.788;2022-12-29T04:03:25;725.00;;;136.68;;
66400;SDS011;53211;45.040;38.788;2022-12-29T04:05:51;687.70;;;138.25;;
66400;SDS011;53211;45.040;38.788;2022-12-29T04:08:17;668.05;;;139.75;;
66400;SDS011;53211;45.040;38.788;2022-12-29T04:10:43;674.92;;;141.50;;
66400;SDS011;53211;45.040;38.788;2022-12-29T04:13:11;670.30;;;139.55;;
66400;SDS011;53211;45.040;38.788;2022-12-29T04:15:38;679.90;;;141.17;;
66400;SDS011;53211;45.040;38.788;2022-12-29T04:18:04;681.10;;;139.60;;
66400;SDS011;53211;45.040;38.788;2022-12-29T04:20:32;671.63;;;139.57;;
66400;SDS011;53211;45.040;38.788;2022-12-29T04:23:16;692.80;;;141.75;;
66400;SDS011;53211;45.040;38.788;2022-12-29T04:25:44;684.95;;;139.25;;
66400;SDS011;53211;45.040;38.788;2022-12-29T04:28:13;673.50;;;138.40;;
66400;SDS011;53211;45.040;38.788;2022-12-29T04:30:43;680.33;;;139.17;;
66400;SDS011;53211;45.040;38.788;2022-12-29T04:33:16;681.30;;;143.88;;
66400;SDS011;53211;45.040;38.788;2022-12-29T04:35:43;675.10;;;138.25;;
66400;SDS011;53211;45.040;38.788;2022-12-29T04:38:10;677.00;;;139.33;;
66400;SDS011;53211;45.040;38.788;2022-12-29T04:40:38;673.30;;;138.00;;
66400;SDS011;53211;45.040;38.788;2022-12-29T04:43:05;670.90;;;137.70;;
66400;SDS011;53211;45.040;38.788;2022-12-29T04:45:47;677.83;;;142.87;;
66400;SDS011;53211;45.040;38.788;2022-12-29T04:48:37;677.45;;;140.07;;
66400;SDS011;53211;45.040;38.788;2022-12-29T04:51:21;674.05;;;138.13;;
66400;SDS011;53211;45.040;38.788;2022-12-29T04:53:48;673.70;;;138.75;;
66400;SDS011;53211;45.040;38.788;2022-12-29T04:56:14;671.70;;;138.30;;
66400;SDS011;53211;45.040;38.788;2022-12-29T04:58:52;675.80;;;139.00;;
66400;SDS011;53211;45.040;38.788;2022-12-29T05:01:20;671.73;;;138.27;;
66400;SDS011;53211;45.040;38.788;2022-12-29T05:03:46;673.60;;;140.50;;
66400;SDS011;53211;45.040;38.788;2022-12-29T05:06:12;665.70;;;137.90;;
66400;SDS011;53211;45.040;38.788;2022-12-29T05:08:38;722.60;;;145.50;;
66400;SDS011;53211;45.040;38.788;2022-12-29T05:11:04;669.60;;;138.75;;
66400;SDS011;53211;45.040;38.788;2022-12-29T05:13:30;670.65;;;139.10;;
66400;SDS011;53211;45.040;38.788;2022-12-29T05:15:56;664.60;;;137.40;;
66400;SDS011;53211;45.040;38.788;2022-12-29T05:18:23;688.70;;;133.70;;
66400;SDS011;53211;45.040;38.788;2022-12-29T05:20:49;691.25;;;135.90;;
66400;SDS011;53211;45.040;38.788;2022-12-29T05:23:17;689.17;;;135.37;;
66400;SDS011;53211;45.040;38.788;2022-12-29T05:25:44;688.03;;;136.55;;
66400;SDS011;53211;45.040;38.788;2022-12-29T05:28:23;671.70;;;140.90;;
66400;SDS011;53211;45.040;38.788;2022-12-29T05:31:11;687.00;;;142.10;;
66400;SDS011;53211;45.040;38.788;2022-12-29T05:33:38;685.30;;;144.50;;
66400;SDS011;53211;45.040;38.788;2022-12-29T05:36:04;677.67;;;141.80;;
66400;SDS011;53211;45.040;38.788;2022-12-29T05:38:33;701.35;;;135.25;;
66400;SDS011;53211;45.040;38.788;2022-12-29T05:41:00;679.03;;;137.18;;
66400;SDS011;53211;45.040;38.788;2022-12-29T05:43:46;706.00;;;135.43;;
66400;SDS011;53211;45.040;38.788;2022-12-29T05:46:26;702.90;;;135.10;;
66400;SDS011;53211;45.040;38.788;2022-12-29T05:49:08;702.85;;;134.70;;
66400;SDS011;53211;45.040;38.788;2022-12-29T05:51:49;691.80;;;134.40;;
66400;SDS011;53211;45.040;38.788;2022-12-29T05:54:15;692.77;;;135.93;;
66400;SDS011;53211;45.040;38.788;2022-12-29T05:56:41;699.10;;;147.10;;
66400;SDS011;53211;45.040;38.788;2022-12-29T05:59:08;700.20;;;138.97;;
66400;SDS011;53211;45.040;38.788;2022-12-29T06:01:39;670.50;;;144.50;;
66400;SDS011;53211;45.040;38.788;2022-12-29T06:04:07;664.67;;;144.03;;
66400;SDS011;53211;45.040;38.788;2022-12-29T06:06:33;672.10;;;159.30;;
66400;SDS011;53211;45.040;38.788;2022-12-29T06:08:59;668.08;;;151.93;;
66400;SDS011;53211;45.040;38.788;2022-12-29T06:11:25;691.63;;;151.05;;
66400;SDS011;53211;45.040;38.788;2022-12-29T06:13:55;685.00;;;140.20;;
66400;SDS011;53211;45.040;38.788;2022-12-29T06:16:22;704.95;;;148.25;;
66400;SDS011;53211;45.040;38.788;2022-12-29T06:18:51;697.45;;;139.05;;
66400;SDS011;53211;45.040;38.788;2022-12-29T06:21:17;694.20;;;137.85;;
66400;SDS011;53211;45.040;38.788;2022-12-29T06:23:45;696.87;;;141.03;;
66400;SDS011;53211;45.040;38.788;2022-12-29T06:26:11;693.60;;;138.30;;
66400;SDS011;53211;45.040;38.788;2022-12-29T06:28:37;695.70;;;135.47;;
66400;SDS011;53211;45.040;38.788;2022-12-29T06:31:03;699.20;;;136.53;;
66400;SDS011;53211;45.040;38.788;2022-12-29T06:33:29;697.80;;;136.60;;
66400;SDS011;53211;45.040;38.788;2022-12-29T06:35:57;698.63;;;137.57;;
66400;SDS011;53211;45.040;38.788;2022-12-29T06:38:23;699.70;;;137.90;;
66400;SDS011;53211;45.040;38.788;2022-12-29T06:40:49;702.00;;;136.87;;
66400;SDS011;53211;45.040;38.788;2022-12-29T06:43:18;698.90;;;136.73;;
66400;SDS011;53211;45.040;38.788;2022-12-29T06:46:07;702.08;;;138.68;;
66400;SDS011;53211;45.040;38.788;2022-12-29T06:48:33;698.40;;;137.90;;
66400;SDS011;53211;45.040;38.788;2022-12-29T06:50:59;702.73;;;141.57;;
66400;SDS011;53211;45.040;38.788;2022-12-29T06:53:25;701.80;;;138.40;;
66400;SDS011;53211;45.040;38.788;2022-12-29T06:55:51;725.63;;;140.47;;
66400;SDS011;53211;45.040;38.788;2022-12-29T06:58:17;723.42;;;137.43;;
66400;SDS011;53211;45.040;38.788;2022-12-29T07:00:43;700.90;;;136.90;;
66400;SDS011;53211;45.040;38.788;2022-12-29T07:03:09;707.40;;;137.13;;
66400;SDS011;53211;45.040;38.788;2022-12-29T07:05:35;697.70;;;139.50;;
66400;SDS011;53211;45.040;38.788;2022-12-29T07:08:01;703.73;;;139.83;;
66400;SDS011;53211;45.040;38.788;2022-12-29T07:10:27;708.57;;;137.23;;
66400;SDS011;53211;45.040;38.788;2022-12-29T07:12:53;711.53;;;136.43;;
66400;SDS011;53211;45.040;38.788;2022-12-29T07:15:19;711.13;;;136.75;;
66400;SDS011;53211;45.040;38.788;2022-12-29T07:17:45;720.30;;;137.40;;
66400;SDS011;53211;45.040;38.788;2022-12-29T07:20:11;717.90;;;136.90;;
66400;SDS011;53211;45.040;38.788;2022-12-29T07:22:37;709.97;;;137.75;;
66400;SDS011;53211;45.040;38.788;2022-12-29T07:25:04;675.92;;;137.05;;
66400;SDS011;53211;45.040;38.788;2022-12-29T07:27:30;714.00;;;138.17;;
66400;SDS011;53211;45.040;38.788;2022-12-29T07:29:56;712.10;;;137.70;;
66400;SDS011;53211;45.040;38.788;2022-12-29T07:32:22;710.45;;;138.00;;
66400;SDS011;53211;45.040;38.788;2022-12-29T07:34:48;710.10;;;139.50;;
66400;SDS011;53211;45.040;38.788;2022-12-29T07:37:17;694.43;;;140.07;;
66400;SDS011;53211;45.040;38.788;2022-12-29T07:39:43;709.50;;;138.40;;
66400;SDS011;53211;45.040;38.788;2022-12-29T07:42:09;710.80;;;138.45;;
66400;SDS011;53211;45.040;38.788;2022-12-29T07:44:45;711.87;;;138.30;;
66400;SDS011;53211;45.040;38.788;2022-12-29T07:47:15;714.67;;;136.37;;
66400;SDS011;53211;45.040;38.788;2022-12-29T07:49:41;705.30;;;139.10;;
66400;SDS011;53211;45.040;38.788;2022-12-29T07:52:07;698.25;;;141.00;;
66400;SDS011;53211;45.040;38.788;2022-12-29T07:54:33;698.90;;;141.15;;
66400;SDS011;53211;45.040;38.788;2022-12-29T07:56:59;705.55;;;139.30;;
66400;SDS011;53211;45.040;38.788;2022-12-29T07:59:25;699.30;;;140.25;;
66400;SDS011;53211;45.040;38.788;2022-12-29T08:01:51;700.75;;;139.20;;
66400;SDS011;53211;45.040;38.788;2022-12-29T08:04:17;702.15;;;140.70;;
66400;SDS011;53211;45.040;38.788;2022-12-29T08:06:43;700.05;;;140.35;;
66400;SDS011;53211;45.040;38.788;2022-12-29T08:09:10;685.10;;;141.30;;
66400;SDS011;53211;45.040;38.788;2022-12-29T08:11:37;674.00;;;142.05;;
66400;SDS011;53211;45.040;38.788;2022-12-29T08:14:03;709.10;;;142.77;;
66400;SDS011;53211;45.040;38.788;2022-12-29T08:16:29;711.03;;;141.03;;
66400;SDS011;53211;45.040;38.788;2022-12-29T08:18:56;680.85;;;144.50;;
66400;SDS011;53211;45.040;38.788;2022-12-29T08:21:22;686.30;;;144.50;;
66400;SDS011;53211;45.040;38.788;2022-12-29T08:23:48;683.90;;;143.95;;
66400;SDS011;53211;45.040;38.788;2022-12-29T08:26:14;686.20;;;141.20;;
66400;SDS011;53211;45.040;38.788;2022-12-29T08:28:40;684.72;;;142.75;;
66400;SDS011;53211;45.040;38.788;2022-12-29T08:31:08;689.20;;;142.50;;
66400;SDS011;53211;45.040;38.788;2022-12-29T08:33:35;691.15;;;142.85;;
66400;SDS011;53211;45.040;38.788;2022-12-29T08:36:01;690.63;;;143.33;;
66400;SDS011;53211;45.040;38.788;2022-12-29T08:38:29;682.80;;;142.45;;
66400;SDS011;53211;45.040;38.788;2022-12-29T08:40:58;690.00;;;141.27;;
66400;SDS011;53211;45.040;38.788;2022-12-29T08:43:26;689.83;;;141.93;;
66400;SDS011;53211;45.040;38.788;2022-12-29T08:45:52;690.87;;;142.53;;
66400;SDS011;53211;45.040;38.788;2022-12-29T08:48:18;703.30;;;140.83;;
66400;SDS011;53211;45.040;38.788;2022-12-29T08:50:47;726.45;;;139.55;;
66400;SDS011;53211;45.040;38.788;2022-12-29T08:53:15;703.05;;;141.75;;
66400;SDS011;53211;45.040;38.788;2022-12-29T08:55:41;691.45;;;141.90;;
66400;SDS011;53211;45.040;38.788;2022-12-29T08:58:07;691.78;;;141.10;;
66400;SDS011;53211;45.040;38.788;2022-12-29T09:00:36;693.00;;;142.10;;
66400;SDS011;53211;45.040;38.788;2022-12-29T09:03:02;695.30;;;140.60;;
66400;SDS011;53211;45.040;38.788;2022-12-29T09:05:28;696.50;;;140.07;;
66400;SDS011;53211;45.040;38.788;2022-12-29T09:07:54;698.27;;;139.53;;
66400;SDS011;53211;45.040;38.788;2022-12-29T09:10:20;695.45;;;140.30;;
66400;SDS011;53211;45.040;38.788;2022-12-29T09:12:46;694.60;;;140.53;;
66400;SDS011;53211;45.040;38.788;2022-12-29T09:15:12;695.30;;;140.50;;
66400;SDS011;53211;45.040;38.788;2022-12-29T09:17:38;694.87;;;139.73;;
66400;SDS011;53211;45.040;38.788;2022-12-29T09:20:14;693.20;;;140.55;;
66400;SDS011;53211;45.040;38.788;2022-12-29T09:22:42;736.80;;;137.50;;
66400;SDS011;53211;45.040;38.788;2022-12-29T09:25:09;719.87;;;139.00;;
66400;SDS011;53211;45.040;38.788;2022-12-29T09:27:36;699.15;;;140.35;;
66400;SDS011;53211;45.040;38.788;2022-12-29T09:30:03;699.73;;;140.63;;
66400;SDS011;53211;45.040;38.788;2022-12-29T09:32:31;696.90;;;139.60;;
66400;SDS011;53211;45.040;38.788;2022-12-29T09:34:58;699.83;;;140.20;;
66400;SDS011;53211;45.040;38.788;2022-12-29T09:37:24;713.00;;;139.27;;
66400;SDS011;53211;45.040;38.788;2022-12-29T09:39:50;707.15;;;140.45;;
66400;SDS011;53211;45.040;38.788;2022-12-29T09:47:31;708.17;;;140.97;;
66400;SDS011;53211;45.040;38.788;2022-12-29T09:50:10;713.77;;;140.70;;
66400;SDS011;53211;45.040;38.788;2022-12-29T09:52:44;712.65;;;140.90;;
66400;SDS011;53211;45.040;38.788;2022-12-29T09:55:36;702.50;;;140.05;;
66400;SDS011;53211;45.040;38.788;2022-12-29T09:58:10;702.53;;;140.87;;
66400;SDS011;53211;45.040;38.788;2022-12-29T10:06:20;730.60;;;138.45;;
66400;SDS011;53211;45.040;38.788;2022-12-29T10:08:52;706.75;;;139.90;;
66400;SDS011;53211;45.040;38.788;2022-12-29T10:11:49;709.35;;;140.55;;
66400;SDS011;53211;45.040;38.788;2022-12-29T10:22:45;720.27;;;140.13;;
66400;SDS011;53211;45.040;38.788;2022-12-29T10:25:36;721.93;;;139.40;;
66400;SDS011;53211;45.040;38.788;2022-12-29T10:28:05;719.60;;;140.70;;
66400;SDS011;53211;45.040;38.788;2022-12-29T10:30:40;712.17;;;141.20;;
66400;SDS011;53211;45.040;38.788;2022-12-29T10:33:08;719.90;;;141.40;;
66400;SDS011;53211;45.040;38.788;2022-12-29T10:35:41;709.40;;;141.20;;
66400;SDS011;53211;45.040;38.788;2022-12-29T10:38:25;711.05;;;140.70;;
66400;SDS011;53211;45.040;38.788;2022-12-29T10:41:00;710.55;;;140.65;;
66400;SDS011;53211;45.040;38.788;2022-12-29T10:45:55;737.37;;;137.27;;
66400;SDS011;53211;45.040;38.788;2022-12-29T10:48:25;735.70;;;136.20;;
66400;SDS011;53211;45.040;38.788;2022-12-29T10:50:56;735.80;;;138.20;;
66400;SDS011;53211;45.040;38.788;2022-12-29T10:53:25;729.53;;;137.00;;
66400;SDS011;53211;45.040;38.788;2022-12-29T10:55:55;734.87;;;139.17;;
66400;SDS011;53211;45.040;38.788;2022-12-29T10:58:22;736.65;;;137.70;;
66400;SDS011;53211;45.040;38.788;2022-12-29T11:00:50;735.30;;;136.90;;
66400;SDS011;53211;45.040;38.788;2022-12-29T11:06:21;735.60;;;140.40;;
66400;SDS011;53211;45.040;38.788;2022-12-29T11:09:01;738.30;;;139.20;;
66400;SDS011;53211;45.040;38.788;2022-12-29T11:11:35;741.10;;;142.07;;
66400;SDS011;53211;45.040;38.788;2022-12-29T11:14:08;749.22;;;138.00;;
66400;SDS011;53211;45.040;38.788;2022-12-29T11:16:38;735.00;;;140.50;;
66400;SDS011;53211;45.040;38.788;2022-12-29T11:19:28;754.95;;;137.93;;
66400;SDS011;53211;45.040;38.788;2022-12-29T11:22:02;751.10;;;137.90;;
66400;SDS011;53211;45.040;38.788;2022-12-29T11:24:49;749.55;;;137.05;;
66400;SDS011;53211;45.040;38.788;2022-12-29T11:27:17;744.40;;;139.10;;
66400;SDS011;53211;45.040;38.788;2022-12-29T11:29:48;743.25;;;137.70;;
66400;SDS011;53211;45.040;38.788;2022-12-29T11:32:21;744.03;;;140.07;;
66400;SDS011;53211;45.040;38.788;2022-12-29T11:34:48;741.97;;;140.65;;
66400;SDS011;53211;45.040;38.788;2022-12-29T11:37:16;745.30;;;139.50;;
66400;SDS011;53211;45.040;38.788;2022-12-29T11:42:16;742.65;;;140.45;;
66400;SDS011;53211;45.040;38.788;2022-12-29T11:44:46;740.17;;;141.18;;
66400;SDS011;53211;45.040;38.788;2022-12-29T11:49:58;769.17;;;139.30;;
66400;SDS011;53211;45.040;38.788;2022-12-29T11:52:29;754.05;;;139.70;;
66400;SDS011;53211;45.040;38.788;2022-12-29T11:55:00;758.40;;;140.20;;
66400;SDS011;53211;45.040;38.788;2022-12-29T11:57:29;745.50;;;140.85;;
66400;SDS011;53211;45.040;38.788;2022-12-29T12:00:00;748.75;;;140.15;;
66400;SDS011;53211;45.040;38.788;2022-12-29T12:05:28;751.75;;;141.70;;
66400;SDS011;53211;45.040;38.788;2022-12-29T12:08:04;755.75;;;141.75;;
66400;SDS011;53211;45.040;38.788;2022-12-29T12:10:42;754.90;;;142.33;;
66400;SDS011;53211;45.040;38.788;2022-12-29T12:13:19;735.85;;;146.95;;
66400;SDS011;53211;45.040;38.788;2022-12-29T12:15:52;735.10;;;147.10;;
66400;SDS011;53211;45.040;38.788;2022-12-29T12:18:32;743.15;;;147.80;;
66400;SDS011;53211;45.040;38.788;2022-12-29T12:24:10;728.53;;;153.43;;
66400;SDS011;53211;45.040;38.788;2022-12-29T12:26:58;750.00;;;150.60;;
66400;SDS011;53211;45.040;38.788;2022-12-29T12:32:10;727.95;;;143.95;;
66400;SDS011;53211;45.040;38.788;2022-12-29T12:34:43;740.17;;;146.20;;
66400;SDS011;53211;45.040;38.788;2022-12-29T12:42:47;744.60;;;146.00;;
66400;SDS011;53211;45.040;38.788;2022-12-29T12:48:13;737.40;;;146.00;;
66400;SDS011;53211;45.040;38.788;2022-12-29T12:51:08;734.50;;;144.77;;
66400;SDS011;53211;45.040;38.788;2022-12-29T12:54:03;738.10;;;145.40;;
66400;SDS011;53211;45.040;38.788;2022-12-29T12:59:37;731.33;;;143.53;;
66400;SDS011;53211;45.040;38.788;2022-12-29T13:02:28;737.20;;;144.20;;
66400;SDS011;53211;45.040;38.788;2022-12-29T13:10:45;732.95;;;144.10;;
66400;SDS011;53211;45.040;38.788;2022-12-29T13:18:58;724.30;;;144.90;;
66400;SDS011;53211;45.040;38.788;2022-12-29T13:27:11;714.70;;;145.35;;
66400;SDS011;53211;45.040;38.788;2022-12-29T13:32:35;701.80;;;147.47;;
66400;SDS011;53211;45.040;38.788;2022-12-29T13:37:49;702.00;;;146.07;;
66400;SDS011;53211;45.040;38.788;2022-12-29T13:40:21;701.80;;;145.93;;
66400;SDS011;53211;45.040;38.788;2022-12-29T13:42:49;703.97;;;144.27;;
66400;SDS011;53211;45.040;38.788;2022-12-29T13:45:19;703.00;;;145.33;;
66400;SDS011;53211;45.040;38.788;2022-12-29T13:50:53;698.63;;;145.40;;
66400;SDS011;53211;45.040;38.788;2022-12-29T13:56:04;703.00;;;146.27;;
66400;SDS011;53211;45.040;38.788;2022-12-29T14:06:22;699.50;;;141.80;;
66400;SDS011;53211;45.040;38.788;2022-12-29T14:09:00;703.20;;;143.15;;
66400;SDS011;53211;45.040;38.788;2022-12-29T14:11:38;704.00;;;143.70;;
66400;SDS011;53211;45.040;38.788;2022-12-29T14:14:19;692.10;;;148.00;;
66400;SDS011;53211;45.040;38.788;2022-12-29T14:16:48;689.72;;;147.07;;
66400;SDS011;53211;45.040;38.788;2022-12-29T14:19:16;686.63;;;147.60;;
66400;SDS011;53211;45.040;38.788;2022-12-29T14:21:57;681.65;;;147.48;;
66400;SDS011;53211;45.040;38.788;2022-12-29T14:24:38;683.92;;;148.07;;
66400;SDS011;53211;45.040;38.788;2022-12-29T14:42:32;685.50;;;146.77;;
66400;SDS011;53211;45.040;38.788;2022-12-29T14:45:02;696.30;;;147.80;;
66400;SDS011;53211;45.040;38.788;2022-12-29T14:47:46;695.70;;;147.80;;
66400;SDS011;53211;45.040;38.788;2022-12-29T14:53:10;690.83;;;145.88;;
66400;SDS011;53211;45.040;38.788;2022-12-29T14:56:12;692.77;;;144.90;;
66400;SDS011;53211;45.040;38.788;2022-12-29T15:04:41;691.05;;;144.65;;
66400;SDS011;53211;45.040;38.788;2022-12-29T15:07:01;689.65;;;146.65;;
66400;SDS011;53211;45.040;38.788;2022-12-29T15:09:36;689.90;;;146.95;;
66400;SDS011;53211;45.040;38.788;2022-12-29T15:12:19;755.95;;;143.25;;
66400;SDS011;53211;45.040;38.788;2022-12-29T15:14:50;749.37;;;141.60;;
66400;SDS011;53211;45.040;38.788;2022-12-29T15:17:24;722.85;;;145.15;;
66400;SDS011;53211;45.040;38.788;2022-12-29T15:19:58;717.22;;;144.20;;
66400;SDS011;53211;45.040;38.788;2022-12-29T15:22:48;683.60;;;147.30;;
66400;SDS011;53211;45.040;38.788;2022-12-29T15:25:34;733.90;;;145.88;;
66400;SDS011;53211;45.040;38.788;2022-12-29T15:28:05;745.85;;;143.50;;
66400;SDS011;53211;45.040;38.788;2022-12-29T15:30:32;737.10;;;143.10;;
66400;SDS011;53211;45.040;38.788;2022-12-29T15:32:58;754.70;;;141.10;;
66400;SDS011;53211;45.040;38.788;2022-12-29T15:35:25;742.42;;;143.10;;
66400;SDS011;53211;45.040;38.788;2022-12-29T15:37:56;743.85;;;142.90;;
66400;SDS011;53211;45.040;38.788;2022-12-29T15:40:27;745.75;;;142.90;;
66400;SDS011;53211;45.040;38.788;2022-12-29T15:45:48;685.77;;;148.40;;
66400;SDS011;53211;45.040;38.788;2022-12-29T15:48:24;685.87;;;146.00;;
66400;SDS011;53211;45.040;38.788;2022-12-29T15:50:51;681.83;;;151.18;;
66400;SDS011;53211;45.040;38.788;2022-12-29T15:53:21;683.15;;;148.65;;
66400;SDS011;53211;45.040;38.788;2022-12-29T15:55:57;678.63;;;146.93;;
66400;SDS011;53211;45.040;38.788;2022-12-29T15:58:28;678.70;;;149.23;;
66400;SDS011;53211;45.040;38.788;2022-12-29T16:00:56;677.60;;;147.95;;
66400;SDS011;53211;45.040;38.788;2022-12-29T16:03:24;726.77;;;151.93;;
66400;SDS011;53211;45.040;38.788;2022-12-29T16:05:54;671.08;;;148.32;;
66400;SDS011;53211;45.040;38.788;2022-12-29T16:10:59;669.10;;;147.20;;
66400;SDS011;53211;45.040;38.788;2022-12-29T16:13:34;678.83;;;149.65;;
66400;SDS011;53211;45.040;38.788;2022-12-29T16:16:25;677.03;;;149.23;;
66400;SDS011;53211;45.040;38.788;2022-12-29T16:18:54;674.70;;;148.00;;
66400;SDS011;53211;45.040;38.788;2022-12-29T16:21:22;673.70;;;149.05;;
66400;SDS011;53211;45.040;38.788;2022-12-29T16:23:52;677.30;;;150.50;;
66400;SDS011;53211;45.040;38.788;2022-12-29T16:26:21;672.75;;;150.15;;
66400;SDS011;53211;45.040;38.788;2022-12-29T16:28:54;672.00;;;151.75;;
66400;SDS011;53211;45.040;38.788;2022-12-29T16:31:24;660.85;;;153.20;;
66400;SDS011;53211;45.040;38.788;2022-12-29T16:33:58;665.10;;;152.60;;
66400;SDS011;53211;45.040;38.788;2022-12-29T16:36:57;671.03;;;150.90;;